Portada
METAR-TAF:

METAR-TAF

Aeropuertos :

Masjed Soleyman, Irán

latitud: 31-59N, longitud: 049-16E, altitud: 372 m

Observación

El informe se hizo hace 1 hora y 39 minutos, a las 17:00 UTC
Viento calma
Temperatura 40°C
Humedad 13%
Presión 999 hPa
Visibilidad 10 km o más
sin nubes por debajo de 1500 m y sin presencia de cumulonimbus.

METAR: OIAI 151700Z 00000KT CAVOK 40/06 Q0999

Hora: 23:09 (18:39 UTC)


TAF: falta

Observaciones y pronósticos meteorológicos de más de 4000 aeropuertos (mensajes METAR y TAF).

Los puntos amarillos y rojos representan las estaciones disponibles.

Ponga el ratón en el punto deseado para ver el nombre de la estación.

Haga clic para ver las observaciones y los pronósticos meteorológicos.

Para cambiar el mapa : haga clic en los botones verdes con una cruz de color negro para hacer un zoom, en el botón verde con un guión para alejar o en las flechas verdes para mapas adyacentes.


METAR-TAF: